KRBL/RBL METAR and TAF weather

Enter ICAO airport designator
Station Type Date Time Source
KRBL METAR 2022/08/16 18:54 UTC NOAA

KRBL 161854Z AUTO VRB04KT 10SM CLR 36/06 A2979 RMK AO2 SLP082 T03610056


Station Type Date Time Source
KRBL Decoded METAR 2022/08/16 18:54 UTC NOAA

RED BLUFF MUNICIPAL AIRPORT, CA, United States (KRBL) 40-09N 122-15W 104M
Aug 16, 2022 - 02:54 PM EDT / 2022.08.16 1854 UTC
Wind: Variable at 5 MPH (4 KT):0
Visibility: 10 mile(s):0
Sky conditions: clear
Temperature: 97.0 F (36.1 C)
Dew Point: 42.1 F (5.6 C)
Relative Humidity: 15%
Pressure (altimeter): 29.79 in. Hg (1008 hPa)
ob: KRBL 161854Z AUTO VRB04KT 10SM CLR 36/06 A2979 RMK AO2 SLP082 T03610056
cycle: 19

Station Type Date Time Source
KRBL TAF 2022/08/16 19:59 UTC NOAA

TAF
AMD KRBL 161859Z 1619/1718 33005KT 6SM HZ SKC
FM162200 16008KT 6SM HZ SKC
FM170500 VRB04KT P6SM SCT250

Example: see airport list